Aérodrome :
LOGIN :

S'inscrire | Disclaimer

   EN    FR    IT 

 










Légende :    VFR   VFR Marginal   IFR   IFR Intensif   IFR Très Intensif
Visi : 
Plafond : 
>= 8 km
>= 3000ft
5 à 8 km
1000 à 3000 ft
1500m à 5 km
500 à 1000 ft
800 à 1500m
200 à 500 ft
< 800m
< 200 ft
Symboles :   Orages  Brouillard  Fortes neiges  Fortes précipitations  Vent > 20 kt
SIGMETs :   Divers  Orages  Givrage  Turbulence  Onde Orograph.  Cendres Volcan.






- Altitude de l'aérodrome : 392 ft
- Code IATA : CDG


LFPG - Paris-Aeroport Charles De Gaulle

DERNIER METAR :
  • 260400Z 21004KT 6000 0700SE R27L/P2000 R09R/P2000 R26R/1300D R08L/0750D R26L/1000D R08R/1700D R27R/P2000 R09L/P2000 BCFG FEW001 SCT260 09/08 Q1021 TEMPO 0500 BCFG BKN001

METARs EXPIRÉS :
  • 260330Z 19004KT 5000 0600SE R27L/P2000 R09R/P2000 R26R/1100D R08L/1200U R26L/0600D R08R/0750D R27R/P2000 R09L/P2000 BCFG BR FEW001 BKN260 09/08 Q1021 TEMPO 0500 BCFG BKN001
  • 260300Z 19004KT 5000 0600SE R27L/P2000 R09R/P2000 R26R/1300U R08L/0650D R26L/1000D R08R/1400U R27R/P2000 R09L/P2000 BCFG BR FEW001 09/08 Q1021 TEMPO 0500 BCFG BKN001
  • 260230Z 21004KT 5000 0800SE R27L/P2000 R09R/P2000 R26R/0900U R08L/1200N R26L/0800N R08R/P2000 R27R/P2000 R09L/P2000 BCFG BR FEW001 09/09 Q1021 TEMPO 0500 BCFG BKN001
  • 260200Z 22005KT 5000 0500SE R27L/P2000 R09R/P2000 R26R/0400D R08L/P2000 R26L/0900U R08R/P2000 R27R/P2000 R09L/P2000 BCFG BR FEW001 09/09 Q1021 TEMPO 0500 BCFG BKN001
  • 260130Z 23006KT 5000 0500SE R27L/P2000 R09R/P2000 R26R/0500D R08L/0900U R26L/0400N R08R/P2000 R27R/P2000 R09L/P2000 BCFG BR FEW001 10/09 Q1021 TEMPO 0500 BCFG BKN001

TAF AMD TAF LFPG
Valide du 26 à 02h jusqu'au 27 à 06h UTC


260202Z 2602/2706 21005KT 6000 NSC TX14/2614Z TN09/2607Z
BECMG 2602/2604 3000 BR
TEMPO 2602/2607 0300 FG VV///
BECMG 2607/2610 8000 NSW BKN010
BECMG 2613/2615 BKN020
BECMG 2701/2703 4000 BR
PROB40
TEMPO 2704/2706 0300 FG VV///
ATIS : +33 1 48 62 10 92



MET'MAP, la Météo Aéronautique d'un coup d'oeil ! - Copyright ORBIFLY Décembre 2007 - Disclaimer

ORBIFLY MET'MAP TEAM :

Programmation & Développement : Alexandra Zaïnal
Sur une idée originale de : Baudouin d'Aumeries
Assistance à la programmation : Marc-Olivier Méhu
Soutien technique & logistique : Manuel Goepfert

Contact : metmap@orbifly.com




SOURCES & CREDITS :

   NOAA